sensor_id;sensor_type;location;lat;lon;timestamp;temperature;humidity
15819;DHT22;8010;53.986;12.106;2022-10-30T00:00:27;13.50;99.90
15819;DHT22;8010;53.986;12.106;2022-10-30T00:02:53;13.50;99.90
15819;DHT22;8010;53.986;12.106;2022-10-30T00:05:18;13.50;99.90
15819;DHT22;8010;53.986;12.106;2022-10-30T00:07:45;13.40;99.90
15819;DHT22;8010;53.986;12.106;2022-10-30T00:10:11;13.40;99.90
15819;DHT22;8010;53.986;12.106;2022-10-30T00:12:37;13.40;99.90
15819;DHT22;8010;53.986;12.106;2022-10-30T00:15:03;13.40;99.90
15819;DHT22;8010;53.986;12.106;2022-10-30T00:17:28;13.30;99.90
15819;DHT22;8010;53.986;12.106;2022-10-30T00:19:54;13.30;99.90
15819;DHT22;8010;53.986;12.106;2022-10-30T00:22:19;13.30;99.90
15819;DHT22;8010;53.986;12.106;2022-10-30T00:24:45;13.30;99.90
15819;DHT22;8010;53.986;12.106;2022-10-30T00:27:10;13.30;99.90
15819;DHT22;8010;53.986;12.106;2022-10-30T00:29:36;13.30;99.90
15819;DHT22;8010;53.986;12.106;2022-10-30T00:32:01;13.20;99.90
15819;DHT22;8010;53.986;12.106;2022-10-30T00:34:27;13.20;99.90
15819;DHT22;8010;53.986;12.106;2022-10-30T00:36:53;13.20;99.90
15819;DHT22;8010;53.986;12.106;2022-10-30T00:39:18;13.10;99.90
15819;DHT22;8010;53.986;12.106;2022-10-30T00:41:44;13.10;99.90
15819;DHT22;8010;53.986;12.106;2022-10-30T00:47:18;12.90;99.90
15819;DHT22;8010;53.986;12.106;2022-10-30T00:52:44;12.90;99.90
15819;DHT22;8010;53.986;12.106;2022-10-30T00:55:17;12.90;99.90
15819;DHT22;8010;53.986;12.106;2022-10-30T00:57:45;12.90;99.90
15819;DHT22;8010;53.986;12.106;2022-10-30T01:00:11;12.90;99.90
15819;DHT22;8010;53.986;12.106;2022-10-30T01:02:38;12.90;99.90
15819;DHT22;8010;53.986;12.106;2022-10-30T01:05:05;12.90;99.90
15819;DHT22;8010;53.986;12.106;2022-10-30T01:07:31;12.80;99.90
15819;DHT22;8010;53.986;12.106;2022-10-30T01:09:56;12.80;99.90
15819;DHT22;8010;53.986;12.106;2022-10-30T01:12:22;12.90;99.90
15819;DHT22;8010;53.986;12.106;2022-10-30T01:14:56;12.80;99.90
15819;DHT22;8010;53.986;12.106;2022-10-30T01:20:29;12.80;99.90
15819;DHT22;8010;53.986;12.106;2022-10-30T01:23:06;12.90;99.90
15819;DHT22;8010;53.986;12.106;2022-10-30T01:25:50;12.80;99.90
15819;DHT22;8010;53.986;12.106;2022-10-30T01:28:34;12.80;99.90
15819;DHT22;8010;53.986;12.106;2022-10-30T01:34:09;12.90;99.90
15819;DHT22;8010;53.986;12.106;2022-10-30T01:36:42;13.00;99.90
15819;DHT22;8010;53.986;12.106;2022-10-30T01:39:14;13.00;99.90
15819;DHT22;8010;53.986;12.106;2022-10-30T01:41:42;12.90;99.90
15819;DHT22;8010;53.986;12.106;2022-10-30T01:44:15;12.90;99.90
15819;DHT22;8010;53.986;12.106;2022-10-30T01:47:02;12.90;99.90
15819;DHT22;8010;53.986;12.106;2022-10-30T01:52:07;12.80;99.90
15819;DHT22;8010;53.986;12.106;2022-10-30T01:59:53;12.60;99.90
15819;DHT22;8010;53.986;12.106;2022-10-30T02:02:21;12.60;99.90
15819;DHT22;8010;53.986;12.106;2022-10-30T02:04:48;13.20;99.90
15819;DHT22;8010;53.986;12.106;2022-10-30T02:07:14;12.70;99.90
15819;DHT22;8010;53.986;12.106;2022-10-30T02:09:40;12.70;99.90
15819;DHT22;8010;53.986;12.106;2022-10-30T02:12:06;12.70;99.90
15819;DHT22;8010;53.986;12.106;2022-10-30T02:14:36;12.70;99.90
15819;DHT22;8010;53.986;12.106;2022-10-30T02:17:04;12.70;99.90
15819;DHT22;8010;53.986;12.106;2022-10-30T02:19:31;12.70;99.90
15819;DHT22;8010;53.986;12.106;2022-10-30T02:21:56;12.60;99.90
15819;DHT22;8010;53.986;12.106;2022-10-30T02:24:22;12.60;99.90
15819;DHT22;8010;53.986;12.106;2022-10-30T02:26:47;12.60;99.90
15819;DHT22;8010;53.986;12.106;2022-10-30T02:29:13;12.60;99.90
15819;DHT22;8010;53.986;12.106;2022-10-30T02:31:39;12.60;99.90
15819;DHT22;8010;53.986;12.106;2022-10-30T02:34:04;12.50;99.90
15819;DHT22;8010;53.986;12.106;2022-10-30T02:36:30;12.50;99.90
15819;DHT22;8010;53.986;12.106;2022-10-30T02:38:55;12.50;99.90
15819;DHT22;8010;53.986;12.106;2022-10-30T02:41:22;12.40;99.90
15819;DHT22;8010;53.986;12.106;2022-10-30T02:43:49;12.30;99.90
15819;DHT22;8010;53.986;12.106;2022-10-30T02:46:15;12.30;99.90
15819;DHT22;8010;53.986;12.106;2022-10-30T02:48:41;12.20;99.90
15819;DHT22;8010;53.986;12.106;2022-10-30T02:51:06;12.20;99.90
15819;DHT22;8010;53.986;12.106;2022-10-30T02:53:33;12.10;99.90
15819;DHT22;8010;53.986;12.106;2022-10-30T02:56:06;12.10;99.90
15819;DHT22;8010;53.986;12.106;2022-10-30T02:58:32;12.10;99.90
15819;DHT22;8010;53.986;12.106;2022-10-30T03:01:13;12.10;99.90
15819;DHT22;8010;53.986;12.106;2022-10-30T03:03:40;12.10;99.90
15819;DHT22;8010;53.986;12.106;2022-10-30T03:06:07;12.10;99.90
15819;DHT22;8010;53.986;12.106;2022-10-30T03:08:34;12.00;99.90
15819;DHT22;8010;53.986;12.106;2022-10-30T03:11:02;12.00;99.90
15819;DHT22;8010;53.986;12.106;2022-10-30T03:13:30;12.00;99.90
15819;DHT22;8010;53.986;12.106;2022-10-30T03:16:02;12.10;99.90
15819;DHT22;8010;53.986;12.106;2022-10-30T03:18:28;12.10;99.90
15819;DHT22;8010;53.986;12.106;2022-10-30T03:20:58;12.30;99.90
15819;DHT22;8010;53.986;12.106;2022-10-30T03:23:24;12.20;99.90
15819;DHT22;8010;53.986;12.106;2022-10-30T03:25:57;12.30;99.90
15819;DHT22;8010;53.986;12.106;2022-10-30T03:28:25;12.40;99.90
15819;DHT22;8010;53.986;12.106;2022-10-30T03:30:51;12.30;99.90
15819;DHT22;8010;53.986;12.106;2022-10-30T03:33:22;12.30;99.90
15819;DHT22;8010;53.986;12.106;2022-10-30T03:35:47;12.20;99.90
15819;DHT22;8010;53.986;12.106;2022-10-30T03:38:13;12.20;99.90
15819;DHT22;8010;53.986;12.106;2022-10-30T03:40:39;12.20;99.90
15819;DHT22;8010;53.986;12.106;2022-10-30T03:43:04;12.20;99.90
15819;DHT22;8010;53.986;12.106;2022-10-30T03:45:34;12.20;99.90
15819;DHT22;8010;53.986;12.106;2022-10-30T03:48:03;12.20;99.90
15819;DHT22;8010;53.986;12.106;2022-10-30T03:50:29;12.20;99.90
15819;DHT22;8010;53.986;12.106;2022-10-30T03:52:56;12.20;99.90
15819;DHT22;8010;53.986;12.106;2022-10-30T03:55:22;12.20;99.90
15819;DHT22;8010;53.986;12.106;2022-10-30T03:57:48;12.20;99.90
15819;DHT22;8010;53.986;12.106;2022-10-30T04:00:14;12.20;99.90
15819;DHT22;8010;53.986;12.106;2022-10-30T04:02:47;12.20;99.90
15819;DHT22;8010;53.986;12.106;2022-10-30T04:05:18;12.30;99.90
15819;DHT22;8010;53.986;12.106;2022-10-30T04:07:44;12.30;99.90
15819;DHT22;8010;53.986;12.106;2022-10-30T04:10:11;12.40;99.90
15819;DHT22;8010;53.986;12.106;2022-10-30T04:12:37;12.40;99.90
15819;DHT22;8010;53.986;12.106;2022-10-30T04:15:04;12.40;99.90
15819;DHT22;8010;53.986;12.106;2022-10-30T04:17:30;12.50;99.90
15819;DHT22;8010;53.986;12.106;2022-10-30T04:19:56;12.50;99.90
15819;DHT22;8010;53.986;12.106;2022-10-30T04:22:21;12.60;99.90
15819;DHT22;8010;53.986;12.106;2022-10-30T04:24:47;12.70;99.90
15819;DHT22;8010;53.986;12.106;2022-10-30T04:27:14;12.70;99.90
15819;DHT22;8010;53.986;12.106;2022-10-30T04:29:39;12.70;99.90
15819;DHT22;8010;53.986;12.106;2022-10-30T04:32:07;12.70;99.90
15819;DHT22;8010;53.986;12.106;2022-10-30T04:34:32;12.70;99.90
15819;DHT22;8010;53.986;12.106;2022-10-30T04:36:58;12.70;99.90
15819;DHT22;8010;53.986;12.106;2022-10-30T04:39:23;12.60;99.90
15819;DHT22;8010;53.986;12.106;2022-10-30T04:41:49;12.60;99.90
15819;DHT22;8010;53.986;12.106;2022-10-30T04:44:14;12.60;99.90
15819;DHT22;8010;53.986;12.106;2022-10-30T04:46:40;12.60;99.90
15819;DHT22;8010;53.986;12.106;2022-10-30T04:49:06;12.60;99.90
15819;DHT22;8010;53.986;12.106;2022-10-30T04:51:31;12.50;99.90
15819;DHT22;8010;53.986;12.106;2022-10-30T04:53:57;12.50;99.90
15819;DHT22;8010;53.986;12.106;2022-10-30T04:56:23;12.50;99.90
15819;DHT22;8010;53.986;12.106;2022-10-30T04:58:48;12.40;99.90
15819;DHT22;8010;53.986;12.106;2022-10-30T05:01:14;12.40;99.90
15819;DHT22;8010;53.986;12.106;2022-10-30T05:03:40;12.40;99.90
15819;DHT22;8010;53.986;12.106;2022-10-30T05:06:21;12.30;99.90
15819;DHT22;8010;53.986;12.106;2022-10-30T05:08:47;12.30;99.90
15819;DHT22;8010;53.986;12.106;2022-10-30T05:11:13;12.30;99.90
15819;DHT22;8010;53.986;12.106;2022-10-30T05:13:38;12.30;99.90
15819;DHT22;8010;53.986;12.106;2022-10-30T05:16:04;12.20;99.90
15819;DHT22;8010;53.986;12.106;2022-10-30T05:18:30;12.20;99.90
15819;DHT22;8010;53.986;12.106;2022-10-30T05:20:55;12.20;99.90
15819;DHT22;8010;53.986;12.106;2022-10-30T05:23:21;12.20;99.90
15819;DHT22;8010;53.986;12.106;2022-10-30T05:25:46;12.20;99.90
15819;DHT22;8010;53.986;12.106;2022-10-30T05:28:12;12.30;99.90
15819;DHT22;8010;53.986;12.106;2022-10-30T05:30:37;12.30;99.90
15819;DHT22;8010;53.986;12.106;2022-10-30T05:33:05;12.40;99.90
15819;DHT22;8010;53.986;12.106;2022-10-30T05:35:32;12.40;99.90
15819;DHT22;8010;53.986;12.106;2022-10-30T05:37:59;12.40;99.90
15819;DHT22;8010;53.986;12.106;2022-10-30T05:40:25;12.40;99.90
15819;DHT22;8010;53.986;12.106;2022-10-30T05:42:51;12.30;99.90
15819;DHT22;8010;53.986;12.106;2022-10-30T05:45:17;12.30;99.90
15819;DHT22;8010;53.986;12.106;2022-10-30T05:47:43;12.20;99.90
15819;DHT22;8010;53.986;12.106;2022-10-30T05:50:09;12.10;99.90
15819;DHT22;8010;53.986;12.106;2022-10-30T05:52:38;12.10;99.90
15819;DHT22;8010;53.986;12.106;2022-10-30T05:55:04;12.20;99.90
15819;DHT22;8010;53.986;12.106;2022-10-30T05:57:30;12.30;99.90
15819;DHT22;8010;53.986;12.106;2022-10-30T05:59:57;12.30;99.90
15819;DHT22;8010;53.986;12.106;2022-10-30T06:02:23;12.40;99.90
15819;DHT22;8010;53.986;12.106;2022-10-30T06:04:48;12.40;99.90
15819;DHT22;8010;53.986;12.106;2022-10-30T06:07:14;12.40;99.90
15819;DHT22;8010;53.986;12.106;2022-10-30T06:09:40;12.30;99.90
15819;DHT22;8010;53.986;12.106;2022-10-30T06:12:05;12.30;99.90
15819;DHT22;8010;53.986;12.106;2022-10-30T06:14:31;12.30;99.90
15819;DHT22;8010;53.986;12.106;2022-10-30T06:16:56;12.30;99.90
15819;DHT22;8010;53.986;12.106;2022-10-30T06:19:22;12.30;99.90
15819;DHT22;8010;53.986;12.106;2022-10-30T06:21:48;12.30;99.90
15819;DHT22;8010;53.986;12.106;2022-10-30T06:24:13;12.20;99.90
15819;DHT22;8010;53.986;12.106;2022-10-30T06:26:39;12.20;99.90
15819;DHT22;8010;53.986;12.106;2022-10-30T06:29:05;12.20;99.90
15819;DHT22;8010;53.986;12.106;2022-10-30T06:31:30;12.40;99.90
15819;DHT22;8010;53.986;12.106;2022-10-30T06:33:56;12.50;99.90
15819;DHT22;8010;53.986;12.106;2022-10-30T06:36:21;12.60;99.90
15819;DHT22;8010;53.986;12.106;2022-10-30T06:38:47;12.60;99.90
15819;DHT22;8010;53.986;12.106;2022-10-30T06:41:13;12.70;99.90
15819;DHT22;8010;53.986;12.106;2022-10-30T06:43:38;12.70;99.90
15819;DHT22;8010;53.986;12.106;2022-10-30T06:46:04;12.70;99.90
15819;DHT22;8010;53.986;12.106;2022-10-30T06:48:30;12.80;99.90
15819;DHT22;8010;53.986;12.106;2022-10-30T06:50:56;12.80;99.90
15819;DHT22;8010;53.986;12.106;2022-10-30T06:53:22;12.80;99.90
15819;DHT22;8010;53.986;12.106;2022-10-30T06:55:59;12.90;99.90
15819;DHT22;8010;53.986;12.106;2022-10-30T06:58:26;12.80;99.90
15819;DHT22;8010;53.986;12.106;2022-10-30T07:00:52;12.80;99.90
15819;DHT22;8010;53.986;12.106;2022-10-30T07:03:18;12.80;99.90
15819;DHT22;8010;53.986;12.106;2022-10-30T07:05:43;12.80;99.90
15819;DHT22;8010;53.986;12.106;2022-10-30T07:08:09;12.80;99.90
15819;DHT22;8010;53.986;12.106;2022-10-30T07:10:35;12.80;99.90
15819;DHT22;8010;53.986;12.106;2022-10-30T07:13:00;12.80;99.90
15819;DHT22;8010;53.986;12.106;2022-10-30T07:15:26;12.90;99.90
15819;DHT22;8010;53.986;12.106;2022-10-30T07:17:58;12.90;99.90
15819;DHT22;8010;53.986;12.106;2022-10-30T07:20:26;12.90;99.90
15819;DHT22;8010;53.986;12.106;2022-10-30T07:22:52;12.90;99.90
15819;DHT22;8010;53.986;12.106;2022-10-30T07:25:17;12.90;99.90
15819;DHT22;8010;53.986;12.106;2022-10-30T07:27:44;12.90;99.90
15819;DHT22;8010;53.986;12.106;2022-10-30T07:30:11;12.90;99.90
15819;DHT22;8010;53.986;12.106;2022-10-30T07:32:37;12.90;99.90
15819;DHT22;8010;53.986;12.106;2022-10-30T07:35:03;13.00;99.90
15819;DHT22;8010;53.986;12.106;2022-10-30T07:37:29;13.00;99.90
15819;DHT22;8010;53.986;12.106;2022-10-30T07:39:54;13.10;99.90
15819;DHT22;8010;53.986;12.106;2022-10-30T07:42:20;13.20;99.90
15819;DHT22;8010;53.986;12.106;2022-10-30T07:44:45;13.20;99.90
15819;DHT22;8010;53.986;12.106;2022-10-30T07:47:11;13.30;99.90
15819;DHT22;8010;53.986;12.106;2022-10-30T07:49:37;13.40;99.90
15819;DHT22;8010;53.986;12.106;2022-10-30T07:52:02;13.40;99.90
15819;DHT22;8010;53.986;12.106;2022-10-30T07:54:28;13.40;99.90
15819;DHT22;8010;53.986;12.106;2022-10-30T07:56:53;13.50;99.90
15819;DHT22;8010;53.986;12.106;2022-10-30T07:59:19;13.60;99.90
15819;DHT22;8010;53.986;12.106;2022-10-30T08:01:45;13.70;99.90
15819;DHT22;8010;53.986;12.106;2022-10-30T08:04:10;13.60;99.90
15819;DHT22;8010;53.986;12.106;2022-10-30T08:06:38;13.80;99.90
15819;DHT22;8010;53.986;12.106;2022-10-30T08:09:04;13.90;99.90
15819;DHT22;8010;53.986;12.106;2022-10-30T08:11:30;13.90;99.90
15819;DHT22;8010;53.986;12.106;2022-10-30T08:13:55;14.00;99.90
15819;DHT22;8010;53.986;12.106;2022-10-30T08:16:21;14.20;99.90
15819;DHT22;8010;53.986;12.106;2022-10-30T08:18:47;14.30;99.90
15819;DHT22;8010;53.986;12.106;2022-10-30T08:21:12;14.40;99.90
15819;DHT22;8010;53.986;12.106;2022-10-30T08:23:38;14.60;99.90
15819;DHT22;8010;53.986;12.106;2022-10-30T08:26:04;14.90;99.90
15819;DHT22;8010;53.986;12.106;2022-10-30T08:28:31;15.10;99.90
15819;DHT22;8010;53.986;12.106;2022-10-30T08:30:57;15.20;99.90
15819;DHT22;8010;53.986;12.106;2022-10-30T08:33:23;15.40;99.90
15819;DHT22;8010;53.986;12.106;2022-10-30T08:35:56;15.40;99.90
15819;DHT22;8010;53.986;12.106;2022-10-30T08:38:22;15.60;99.90
15819;DHT22;8010;53.986;12.106;2022-10-30T08:40:48;15.70;99.90
15819;DHT22;8010;53.986;12.106;2022-10-30T08:43:14;15.90;99.90
15819;DHT22;8010;53.986;12.106;2022-10-30T08:45:40;16.00;99.90
15819;DHT22;8010;53.986;12.106;2022-10-30T08:48:08;16.00;99.90
15819;DHT22;8010;53.986;12.106;2022-10-30T08:50:35;16.00;99.90
15819;DHT22;8010;53.986;12.106;2022-10-30T08:53:05;16.10;99.90
15819;DHT22;8010;53.986;12.106;2022-10-30T08:55:32;16.00;99.90
15819;DHT22;8010;53.986;12.106;2022-10-30T08:57:58;16.00;99.90
15819;DHT22;8010;53.986;12.106;2022-10-30T09:00:24;15.90;99.90
15819;DHT22;8010;53.986;12.106;2022-10-30T09:02:50;15.90;99.90
15819;DHT22;8010;53.986;12.106;2022-10-30T09:05:15;15.90;99.90
15819;DHT22;8010;53.986;12.106;2022-10-30T09:07:41;16.00;99.90
15819;DHT22;8010;53.986;12.106;2022-10-30T09:10:07;16.00;99.90
15819;DHT22;8010;53.986;12.106;2022-10-30T09:12:32;16.00;99.90
15819;DHT22;8010;53.986;12.106;2022-10-30T09:14:58;16.10;99.90
15819;DHT22;8010;53.986;12.106;2022-10-30T09:17:23;16.30;99.90
15819;DHT22;8010;53.986;12.106;2022-10-30T09:19:49;16.50;99.90
15819;DHT22;8010;53.986;12.106;2022-10-30T09:22:14;16.70;99.90
15819;DHT22;8010;53.986;12.106;2022-10-30T09:24:40;16.90;99.90
15819;DHT22;8010;53.986;12.106;2022-10-30T09:27:06;17.10;99.90
15819;DHT22;8010;53.986;12.106;2022-10-30T09:29:32;17.20;99.90
15819;DHT22;8010;53.986;12.106;2022-10-30T09:31:58;17.10;99.90
15819;DHT22;8010;53.986;12.106;2022-10-30T09:34:24;17.10;99.90
15819;DHT22;8010;53.986;12.106;2022-10-30T09:36:51;17.00;99.90
15819;DHT22;8010;53.986;12.106;2022-10-30T09:39:17;17.00;99.90
15819;DHT22;8010;53.986;12.106;2022-10-30T09:42:04;16.90;99.90
15819;DHT22;8010;53.986;12.106;2022-10-30T09:52:34;17.30;99.90
15819;DHT22;8010;53.986;12.106;2022-10-30T09:55:15;17.50;99.90
15819;DHT22;8010;53.986;12.106;2022-10-30T10:00:52;18.20;99.90
15819;DHT22;8010;53.986;12.106;2022-10-30T10:06:11;18.80;99.90
15819;DHT22;8010;53.986;12.106;2022-10-30T10:08:47;19.00;99.90
15819;DHT22;8010;53.986;12.106;2022-10-30T10:11:21;19.20;99.90
15819;DHT22;8010;53.986;12.106;2022-10-30T10:14:02;19.40;99.90
15819;DHT22;8010;53.986;12.106;2022-10-30T10:16:32;18.60;99.90
15819;DHT22;8010;53.986;12.106;2022-10-30T10:21:50;19.40;99.90
15819;DHT22;8010;53.986;12.106;2022-10-30T10:24:22;19.30;99.90
15819;DHT22;8010;53.986;12.106;2022-10-30T10:26:55;19.20;99.90
15819;DHT22;8010;53.986;12.106;2022-10-30T10:29:33;19.00;99.90
15819;DHT22;8010;53.986;12.106;2022-10-30T10:35:18;18.60;99.90
15819;DHT22;8010;53.986;12.106;2022-10-30T10:51:56;18.30;99.90
15819;DHT22;8010;53.986;12.106;2022-10-30T10:54:34;18.30;99.90
15819;DHT22;8010;53.986;12.106;2022-10-30T10:57:03;18.40;99.90
15819;DHT22;8010;53.986;12.106;2022-10-30T10:59:43;18.60;99.90
15819;DHT22;8010;53.986;12.106;2022-10-30T11:02:27;18.80;99.90
15819;DHT22;8010;53.986;12.106;2022-10-30T11:05:01;19.10;99.90
15819;DHT22;8010;53.986;12.106;2022-10-30T11:07:32;19.50;99.90
15819;DHT22;8010;53.986;12.106;2022-10-30T11:09:58;19.90;99.90
15819;DHT22;8010;53.986;12.106;2022-10-30T11:12:28;20.10;99.90
15819;DHT22;8010;53.986;12.106;2022-10-30T11:14:57;20.30;99.90
15819;DHT22;8010;53.986;12.106;2022-10-30T11:17:37;20.40;99.90
15819;DHT22;8010;53.986;12.106;2022-10-30T11:23:03;20.70;99.90
15819;DHT22;8010;53.986;12.106;2022-10-30T11:25:48;21.00;99.90
15819;DHT22;8010;53.986;12.106;2022-10-30T11:28:44;21.40;99.90
15819;DHT22;8010;53.986;12.106;2022-10-30T11:31:24;21.60;99.90
15819;DHT22;8010;53.986;12.106;2022-10-30T11:33:53;21.70;99.90
15819;DHT22;8010;53.986;12.106;2022-10-30T11:36:22;22.00;99.90
15819;DHT22;8010;53.986;12.106;2022-10-30T11:38:48;22.20;99.90
15819;DHT22;8010;53.986;12.106;2022-10-30T11:41:14;22.20;99.90
15819;DHT22;8010;53.986;12.106;2022-10-30T11:43:42;22.20;99.90
15819;DHT22;8010;53.986;12.106;2022-10-30T11:46:10;22.10;99.90
15819;DHT22;8010;53.986;12.106;2022-10-30T11:48:38;22.10;99.90
15819;DHT22;8010;53.986;12.106;2022-10-30T11:51:04;22.20;99.90
15819;DHT22;8010;53.986;12.106;2022-10-30T11:53:35;22.40;99.90
15819;DHT22;8010;53.986;12.106;2022-10-30T11:56:15;22.50;99.90
15819;DHT22;8010;53.986;12.106;2022-10-30T11:58:45;22.70;99.90
15819;DHT22;8010;53.986;12.106;2022-10-30T12:01:26;22.90;99.90
15819;DHT22;8010;53.986;12.106;2022-10-30T12:03:54;22.90;99.90
15819;DHT22;8010;53.986;12.106;2022-10-30T12:06:27;23.60;99.90
15819;DHT22;8010;53.986;12.106;2022-10-30T12:09:21;23.10;99.90
15819;DHT22;8010;53.986;12.106;2022-10-30T12:11:47;23.40;99.90
15819;DHT22;8010;53.986;12.106;2022-10-30T12:14:19;23.50;99.90
15819;DHT22;8010;53.986;12.106;2022-10-30T12:16:47;23.70;99.90
15819;DHT22;8010;53.986;12.106;2022-10-30T12:19:15;23.80;99.90
15819;DHT22;8010;53.986;12.106;2022-10-30T12:21:51;23.80;99.90
15819;DHT22;8010;53.986;12.106;2022-10-30T12:24:37;23.80;99.90
15819;DHT22;8010;53.986;12.106;2022-10-30T12:27:10;23.90;99.90
15819;DHT22;8010;53.986;12.106;2022-10-30T12:32:33;24.10;99.90
15819;DHT22;8010;53.986;12.106;2022-10-30T12:37:53;24.20;99.90
15819;DHT22;8010;53.986;12.106;2022-10-30T12:40:29;24.20;99.90
15819;DHT22;8010;53.986;12.106;2022-10-30T12:43:11;24.10;99.90
15819;DHT22;8010;53.986;12.106;2022-10-30T12:45:43;24.10;99.90
15819;DHT22;8010;53.986;12.106;2022-10-30T12:53:31;24.10;99.90
15819;DHT22;8010;53.986;12.106;2022-10-30T12:56:04;24.10;99.90
15819;DHT22;8010;53.986;12.106;2022-10-30T13:03:45;24.50;99.90
15819;DHT22;8010;53.986;12.106;2022-10-30T13:06:16;24.60;99.90
15819;DHT22;8010;53.986;12.106;2022-10-30T13:09:06;24.50;99.90
15819;DHT22;8010;53.986;12.106;2022-10-30T13:17:13;24.40;99.90
15819;DHT22;8010;53.986;12.106;2022-10-30T13:19:40;24.20;99.90
15819;DHT22;8010;53.986;12.106;2022-10-30T13:27:44;24.40;99.90
15819;DHT22;8010;53.986;12.106;2022-10-30T13:30:15;24.40;99.90
15819;DHT22;8010;53.986;12.106;2022-10-30T13:35:45;24.50;99.90
15819;DHT22;8010;53.986;12.106;2022-10-30T13:43:41;24.70;99.90
15819;DHT22;8010;53.986;12.106;2022-10-30T13:46:23;24.80;99.90
15819;DHT22;8010;53.986;12.106;2022-10-30T13:49:14;24.70;99.90
15819;DHT22;8010;53.986;12.106;2022-10-30T13:52:13;24.60;99.90
15819;DHT22;8010;53.986;12.106;2022-10-30T13:54:49;24.50;99.90
15819;DHT22;8010;53.986;12.106;2022-10-30T13:57:33;24.10;99.90
15819;DHT22;8010;53.986;12.106;2022-10-30T14:03:13;24.20;99.90
15819;DHT22;8010;53.986;12.106;2022-10-30T14:05:50;23.90;99.90
15819;DHT22;8010;53.986;12.106;2022-10-30T14:08:45;23.80;99.90
15819;DHT22;8010;53.986;12.106;2022-10-30T14:11:13;23.60;99.90
15819;DHT22;8010;53.986;12.106;2022-10-30T14:13:55;23.50;99.90
15819;DHT22;8010;53.986;12.106;2022-10-30T14:19:04;23.30;99.90
15819;DHT22;8010;53.986;12.106;2022-10-30T14:21:33;23.20;99.90
15819;DHT22;8010;53.986;12.106;2022-10-30T14:24:23;23.00;99.90
15819;DHT22;8010;53.986;12.106;2022-10-30T14:26:49;22.90;99.90
15819;DHT22;8010;53.986;12.106;2022-10-30T14:32:00;22.80;99.90
15819;DHT22;8010;53.986;12.106;2022-10-30T14:34:45;23.80;99.90
15819;DHT22;8010;53.986;12.106;2022-10-30T14:39:53;22.50;99.90
15819;DHT22;8010;53.986;12.106;2022-10-30T14:42:31;22.40;99.90
15819;DHT22;8010;53.986;12.106;2022-10-30T14:48:01;22.40;99.90
15819;DHT22;8010;53.986;12.106;2022-10-30T14:50:56;22.20;99.90
15819;DHT22;8010;53.986;12.106;2022-10-30T14:53:58;22.00;99.90
15819;DHT22;8010;53.986;12.106;2022-10-30T14:56:37;21.80;99.90
15819;DHT22;8010;53.986;12.106;2022-10-30T15:04:24;21.30;99.90
15819;DHT22;8010;53.986;12.106;2022-10-30T15:07:16;21.10;99.90
15819;DHT22;8010;53.986;12.106;2022-10-30T15:13:04;20.90;99.90
15819;DHT22;8010;53.986;12.106;2022-10-30T15:15:31;20.60;99.90
15819;DHT22;8010;53.986;12.106;2022-10-30T15:18:18;20.50;99.90
15819;DHT22;8010;53.986;12.106;2022-10-30T15:20:52;20.30;99.90
15819;DHT22;8010;53.986;12.106;2022-10-30T15:23:24;20.10;99.90
15819;DHT22;8010;53.986;12.106;2022-10-30T15:25:53;19.90;99.90
15819;DHT22;8010;53.986;12.106;2022-10-30T15:28:38;19.70;99.90
15819;DHT22;8010;53.986;12.106;2022-10-30T15:31:24;19.50;99.90
15819;DHT22;8010;53.986;12.106;2022-10-30T15:33:51;19.20;99.90
15819;DHT22;8010;53.986;12.106;2022-10-30T15:36:20;19.10;99.90
15819;DHT22;8010;53.986;12.106;2022-10-30T15:39:13;19.00;99.90
15819;DHT22;8010;53.986;12.106;2022-10-30T15:44:11;18.70;99.90
15819;DHT22;8010;53.986;12.106;2022-10-30T15:46:38;18.50;99.90
15819;DHT22;8010;53.986;12.106;2022-10-30T15:49:04;18.40;99.90
15819;DHT22;8010;53.986;12.106;2022-10-30T15:51:30;18.30;99.90
15819;DHT22;8010;53.986;12.106;2022-10-30T15:53:59;18.10;99.90
15819;DHT22;8010;53.986;12.106;2022-10-30T15:56:28;17.90;99.90
15819;DHT22;8010;53.986;12.106;2022-10-30T15:59:05;17.70;99.90
15819;DHT22;8010;53.986;12.106;2022-10-30T16:01:36;17.70;99.90
15819;DHT22;8010;53.986;12.106;2022-10-30T16:04:36;17.50;99.90
15819;DHT22;8010;53.986;12.106;2022-10-30T16:07:25;17.40;99.90
15819;DHT22;8010;53.986;12.106;2022-10-30T16:09:55;17.30;99.90
15819;DHT22;8010;53.986;12.106;2022-10-30T16:12:26;17.10;99.90
15819;DHT22;8010;53.986;12.106;2022-10-30T16:14:53;17.10;99.90
15819;DHT22;8010;53.986;12.106;2022-10-30T16:17:20;17.00;99.90
15819;DHT22;8010;53.986;12.106;2022-10-30T16:19:48;17.10;99.90
15819;DHT22;8010;53.986;12.106;2022-10-30T16:22:22;16.70;99.90
15819;DHT22;8010;53.986;12.106;2022-10-30T16:24:49;16.60;99.90
15819;DHT22;8010;53.986;12.106;2022-10-30T16:27:17;16.90;99.90
15819;DHT22;8010;53.986;12.106;2022-10-30T16:29:45;16.40;99.90
15819;DHT22;8010;53.986;12.106;2022-10-30T16:32:14;16.30;99.90
15819;DHT22;8010;53.986;12.106;2022-10-30T16:34:41;16.20;99.90
15819;DHT22;8010;53.986;12.106;2022-10-30T16:37:24;16.10;99.90
15819;DHT22;8010;53.986;12.106;2022-10-30T16:39:55;16.10;99.90
15819;DHT22;8010;53.986;12.106;2022-10-30T16:42:22;16.00;99.90
15819;DHT22;8010;53.986;12.106;2022-10-30T16:44:49;15.90;99.90
15819;DHT22;8010;53.986;12.106;2022-10-30T16:49:56;18.40;99.90
15819;DHT22;8010;53.986;12.106;2022-10-30T16:52:28;15.80;99.90
15819;DHT22;8010;53.986;12.106;2022-10-30T16:55:04;15.80;99.90
15819;DHT22;8010;53.986;12.106;2022-10-30T16:57:34;15.80;99.90
15819;DHT22;8010;53.986;12.106;2022-10-30T17:00:00;15.80;99.90
15819;DHT22;8010;53.986;12.106;2022-10-30T17:02:32;15.70;99.90
15819;DHT22;8010;53.986;12.106;2022-10-30T17:05:13;15.70;99.90
15819;DHT22;8010;53.986;12.106;2022-10-30T17:10:57;15.40;99.90
15819;DHT22;8010;53.986;12.106;2022-10-30T17:13:37;15.30;99.90
15819;DHT22;8010;53.986;12.106;2022-10-30T17:18:46;15.10;99.90
15819;DHT22;8010;53.986;12.106;2022-10-30T17:21:14;15.00;99.90
15819;DHT22;8010;53.986;12.106;2022-10-30T17:23:48;14.90;99.90
15819;DHT22;8010;53.986;12.106;2022-10-30T17:26:15;14.80;99.90
15819;DHT22;8010;53.986;12.106;2022-10-30T17:28:42;14.70;99.90
15819;DHT22;8010;53.986;12.106;2022-10-30T17:33:42;14.60;99.90
15819;DHT22;8010;53.986;12.106;2022-10-30T17:36:09;14.50;99.90
15819;DHT22;8010;53.986;12.106;2022-10-30T17:38:34;14.90;99.90
15819;DHT22;8010;53.986;12.106;2022-10-30T17:41:01;14.40;99.90
15819;DHT22;8010;53.986;12.106;2022-10-30T17:43:32;14.30;99.90
15819;DHT22;8010;53.986;12.106;2022-10-30T17:45:59;14.20;99.90
15819;DHT22;8010;53.986;12.106;2022-10-30T17:48:28;14.20;99.90
15819;DHT22;8010;53.986;12.106;2022-10-30T17:50:54;14.20;99.90
15819;DHT22;8010;53.986;12.106;2022-10-30T17:53:22;14.20;99.90